Time;durP1;ratioP1;P1;durP2;ratioP2;P2;SDS_P1;SDS_P2;PMS_P1;PMS_P2;Temp;Humidity;BMP_temperature;BMP_pressure;BME280_temperature;BME280_humidity;BME280_pressure;Samples;Min_cycle;Max_cycle;Signal;HPM_P1;HPM_P2
2023/02/18 00:02:07;;;;;;;39.83;21.75;;;9.80;99.90;;;;;;5074137;28;20491;-88
2023/02/18 00:04:33;;;;;;;38.42;20.70;;;9.80;99.90;;;;;;5071871;28;20178;-86
2023/02/18 00:06:59;;;;;;;37.38;21.13;;;9.80;99.90;;;;;;5053297;28;20345;-86
2023/02/18 00:09:25;;;;;;;43.85;20.70;;;9.80;99.90;;;;;;5054228;28;20558;-86
2023/02/18 00:11:50;;;;;;;40.65;20.75;;;9.80;99.90;;;;;;5067261;28;20039;-86
2023/02/18 00:14:16;;;;;;;39.03;20.65;;;9.80;99.90;;;;;;5057467;28;20029;-88
2023/02/18 00:16:43;;;;;;;40.70;21.42;;;9.70;99.90;;;;;;5053765;28;20033;-86
2023/02/18 00:19:13;;;;;;;38.20;20.90;;;9.70;99.90;;;;;;5053230;28;20027;-87
2023/02/18 00:21:38;;;;;;;34.33;18.70;;;9.70;99.90;;;;;;5053176;28;20028;-87
2023/02/18 00:24:06;;;;;;;32.83;19.48;;;9.70;99.90;;;;;;5053876;28;20017;-87
2023/02/18 00:26:32;;;;;;;38.70;18.48;;;9.60;99.90;;;;;;5053752;28;20040;-88
2023/02/18 00:28:58;;;;;;;35.50;18.30;;;9.60;99.90;;;;;;5053000;28;20025;-87
2023/02/18 00:31:26;;;;;;;32.92;18.23;;;9.60;99.90;;;;;;5053703;28;20036;-87
2023/02/18 00:33:52;;;;;;;27.27;16.02;;;9.60;99.90;;;;;;5052857;28;20052;-86
2023/02/18 00:36:20;;;;;;;29.88;18.05;;;9.60;99.90;;;;;;5053671;28;20528;-87
2023/02/18 00:38:52;;;;;;;32.80;17.42;;;9.50;99.90;;;;;;5053172;28;20780;-86
2023/02/18 00:41:19;;;;;;;29.92;17.35;;;9.50;99.90;;;;;;5052826;28;20063;-87
2023/02/18 00:43:45;;;;;;;38.75;18.15;;;9.50;99.90;;;;;;5053112;28;20036;-87
2023/02/18 00:46:11;;;;;;;34.72;18.73;;;9.50;99.90;;;;;;5053222;28;20021;-87
2023/02/18 00:48:37;;;;;;;33.97;18.95;;;9.50;99.90;;;;;;5052615;28;20373;-87
2023/02/18 00:51:03;;;;;;;44.15;20.13;;;9.50;99.90;;;;;;5052831;28;20032;-87
2023/02/18 00:53:29;;;;;;;37.30;18.85;;;9.50;99.90;;;;;;5053152;28;20037;-87
2023/02/18 00:55:55;;;;;;;40.78;19.98;;;9.50;99.90;;;;;;5052441;28;20051;-86
2023/02/18 00:58:21;;;;;;;40.05;20.00;;;9.50;99.90;;;;;;5053196;28;20036;-86
2023/02/18 01:00:47;;;;;;;44.78;21.48;;;9.50;99.90;;;;;;5053242;28;20029;-86
2023/02/18 01:03:13;;;;;;;46.67;21.77;;;9.50;99.90;;;;;;5052609;28;20079;-87
2023/02/18 01:05:39;;;;;;;52.53;22.40;;;9.50;99.90;;;;;;5052802;28;20086;-88
2023/02/18 01:08:05;;;;;;;57.22;23.40;;;9.40;99.90;;;;;;5054463;28;20095;-87
2023/02/18 01:10:31;;;;;;;56.22;24.63;;;9.40;99.90;;;;;;5052242;28;20492;-88
2023/02/18 01:12:57;;;;;;;77.45;27.02;;;9.40;99.90;;;;;;5052448;28;20072;-87
2023/02/18 01:15:23;;;;;;;70.32;29.88;;;9.40;99.90;;;;;;5053017;28;20037;-86
2023/02/18 01:17:50;;;;;;;71.88;28.52;;;9.30;99.90;;;;;;5059487;28;20048;-87
2023/02/18 01:20:17;;;;;;;70.22;29.27;;;9.30;99.90;;;;;;5072944;28;20024;-87
2023/02/18 01:22:43;;;;;;;80.95;28.98;;;9.50;99.90;;;;;;5072567;28;20020;-87
2023/02/18 01:25:09;;;;;;;73.70;29.95;;;9.30;99.90;;;;;;5072238;28;20027;-87
2023/02/18 01:27:35;;;;;;;82.97;28.75;;;9.30;99.90;;;;;;5077342;28;20032;-87
2023/02/18 01:30:03;;;;;;;76.35;27.65;;;9.30;99.90;;;;;;5074265;28;20032;-86
2023/02/18 01:32:28;;;;;;;79.43;28.25;;;9.30;99.90;;;;;;5072368;28;20020;-87
2023/02/18 01:34:54;;;;;;;67.80;28.23;;;9.30;99.90;;;;;;5072443;28;20111;-86
2023/02/18 01:37:19;;;;;;;69.20;29.35;;;9.30;99.90;;;;;;5071649;28;20074;-87
2023/02/18 01:39:45;;;;;;;74.03;29.70;;;9.40;99.90;;;;;;5072281;28;20074;-87
2023/02/18 01:42:21;;;;;;;74.85;30.58;;;9.40;99.90;;;;;;5072352;28;20033;-87
2023/02/18 01:44:47;;;;;;;80.13;30.45;;;9.30;99.90;;;;;;5071307;28;20024;-85
2023/02/18 01:47:14;;;;;;;82.57;29.63;;;9.40;99.90;;;;;;5072437;28;20512;-88
2023/02/18 01:49:41;;;;;;;86.10;29.27;;;9.40;99.90;;;;;;5072392;28;20108;-87
2023/02/18 01:52:19;;;;;;;87.68;29.42;;;9.40;99.90;;;;;;5071502;28;20123;-86
2023/02/18 01:54:49;;;;;;;75.93;29.85;;;9.50;99.90;;;;;;5072050;28;20059;-87
2023/02/18 01:57:26;;;;;;;77.40;28.47;;;9.40;99.90;;;;;;5072525;28;20078;-87
2023/02/18 01:59:57;;;;;;;85.90;31.42;;;9.50;99.90;;;;;;5072537;28;20028;-87
2023/02/18 02:02:26;;;;;;;73.50;29.92;;;9.50;99.90;;;;;;5073046;28;20427;-87
2023/02/18 02:04:52;;;;;;;68.93;27.63;;;9.50;99.90;;;;;;5071973;28;20024;-88
2023/02/18 02:07:21;;;;;;;64.65;27.55;;;9.50;99.90;;;;;;5071600;28;20032;-86
2023/02/18 02:09:49;;;;;;;71.65;26.70;;;9.50;99.90;;;;;;5072004;28;20036;-86
2023/02/18 02:12:41;;;;;;;65.53;27.05;;;9.60;99.90;;;;;;5071691;28;20476;-86
2023/02/18 02:15:25;;;;;;;69.22;28.40;;;9.60;99.90;;;;;;5072240;28;20064;-88
2023/02/18 02:18:25;;;;;;;66.00;26.10;;;9.60;99.90;;;;;;5071923;28;20395;-86
2023/02/18 02:21:14;;;;;;;68.03;27.20;;;9.70;99.90;;;;;;5071399;28;20017;-87
2023/02/18 02:24:24;;;;;;;62.13;25.15;;;9.70;99.90;;;;;;5071961;28;20025;-87
2023/02/18 02:27:17;;;;;;;64.00;25.35;;;9.80;99.90;;;;;;5070948;28;20056;-88
2023/02/18 02:30:05;;;;;;;53.78;24.75;;;9.80;99.90;;;;;;5071839;28;20024;-87
2023/02/18 02:32:49;;;;;;;57.40;24.92;;;9.90;99.90;;;;;;5072165;28;20025;-88
2023/02/18 02:35:23;;;;;;;58.28;24.30;;;10.10;99.90;;;;;;5071702;28;20017;-88
2023/02/18 02:37:58;;;;;;;51.70;25.17;;;9.80;99.90;;;;;;5071847;28;20500;-88
2023/02/18 02:40:48;;;;;;;58.20;24.05;;;9.90;99.90;;;;;;5071392;28;20032;-87
2023/02/18 02:43:28;;;;;;;54.07;23.20;;;9.90;99.90;;;;;;5075663;28;20472;-86
2023/02/18 02:46:06;;;;;;;56.08;22.55;;;9.90;99.90;;;;;;5075451;28;20048;-87
2023/02/18 02:48:45;;;;;;;51.08;21.40;;;9.90;99.90;;;;;;5074550;28;20025;-87
2023/02/18 02:51:27;;;;;;;47.70;19.92;;;9.90;99.90;;;;;;5071065;28;20038;-87
2023/02/18 02:53:52;;;;;;;44.83;19.50;;;10.20;99.90;;;;;;5075631;28;20494;-86
2023/02/18 02:56:24;;;;;;;44.85;18.27;;;9.90;99.90;;;;;;5075301;28;20059;-88
2023/02/18 02:59:05;;;;;;;39.88;17.58;;;9.90;99.90;;;;;;5070354;28;20044;-87
2023/02/18 03:02:07;;;;;;;34.22;15.02;;;10.00;99.90;;;;;;5054707;28;20021;-87
2023/02/18 03:04:51;;;;;;;26.27;12.40;;;10.00;99.90;;;;;;5055341;28;20021;-86
2023/02/18 03:07:32;;;;;;;27.48;11.13;;;10.00;99.90;;;;;;5055300;28;20489;-88
2023/02/18 03:10:43;;;;;;;21.25;10.80;;;9.90;99.90;;;;;;5054340;28;20025;-87
2023/02/18 03:13:42;;;;;;;15.32;9.88;;;10.00;99.90;;;;;;5018472;28;20427;-87
2023/02/18 03:16:13;;;;;;;17.45;10.23;;;10.00;99.90;;;;;;5054461;28;20033;-87
2023/02/18 03:18:58;;;;;;;17.45;10.25;;;10.00;99.90;;;;;;5054873;28;20051;-88
2023/02/18 03:21:32;;;;;;;22.90;11.80;;;10.00;99.90;;;;;;5055106;28;20021;-87
2023/02/18 03:24:26;;;;;;;19.67;11.50;;;10.00;99.90;;;;;;5054317;28;20028;-87
2023/02/18 03:26:58;;;;;;;23.83;13.35;;;10.00;99.90;;;;;;5023411;28;20025;-86
2023/02/18 03:29:25;;;;;;;24.95;14.63;;;10.10;99.90;;;;;;5055236;28;20064;-88
2023/02/18 03:31:56;;;;;;;26.98;15.93;;;10.10;99.90;;;;;;5053900;28;20033;-86
2023/02/18 03:34:24;;;;;;;;;;;10.10;99.90;;;;;;5055283;28;20420;-87
2023/02/18 03:36:51;;;;;;;28.15;16.35;;;10.20;99.90;;;;;;5053589;28;19920;-86
2023/02/18 03:39:19;;;;;;;27.48;15.30;;;10.10;99.90;;;;;;5054979;28;20025;-87
2023/02/18 03:41:45;;;;;;;23.70;14.13;;;10.20;99.90;;;;;;5054445;28;20033;-87
2023/02/18 03:44:11;;;;;;;18.58;12.38;;;10.20;99.90;;;;;;5054100;28;20100;-86
2023/02/18 03:46:39;;;;;;;20.90;12.57;;;10.20;99.90;;;;;;5054159;28;20021;-87
2023/02/18 03:49:05;;;;;;;19.13;13.27;;;10.10;99.90;;;;;;5055052;28;20123;-87
2023/02/18 03:51:31;;;;;;;21.30;14.25;;;10.20;99.90;;;;;;5053676;28;20535;-87
2023/02/18 03:53:57;;;;;;;17.05;13.18;;;10.20;99.90;;;;;;5053087;28;20468;-87
2023/02/18 03:56:23;;;;;;;19.15;12.07;;;10.40;99.90;;;;;;5054569;28;20032;-86
2023/02/18 03:58:48;;;;;;;15.63;11.90;;;10.10;99.90;;;;;;5053522;28;20048;-87
2023/02/18 04:01:14;;;;;;;16.42;11.98;;;10.10;99.90;;;;;;5054226;28;20036;-87
2023/02/18 04:03:40;;;;;;;13.68;10.82;;;10.10;99.90;;;;;;5054073;28;20029;-87
2023/02/18 04:06:06;;;;;;;16.65;10.73;;;10.10;99.90;;;;;;5053524;28;20489;-87
2023/02/18 04:08:31;;;;;;;13.18;9.82;;;10.10;99.90;;;;;;5053979;28;20025;-87
2023/02/18 04:10:57;;;;;;;13.07;9.48;;;10.10;99.90;;;;;;5053916;28;20056;-86
2023/02/18 04:13:23;;;;;;;14.10;9.52;;;10.10;99.90;;;;;;5054711;28;20021;-88
2023/02/18 04:15:49;;;;;;;15.45;10.13;;;10.10;99.90;;;;;;5056731;28;20029;-87
2023/02/18 04:18:15;;;;;;;13.45;9.73;;;10.90;99.90;;;;;;5053461;28;20033;-87
2023/02/18 04:20:41;;;;;;;14.02;8.43;;;10.00;99.90;;;;;;5052658;28;20035;-87
2023/02/18 04:23:06;;;;;;;19.60;9.20;;;10.00;99.90;;;;;;5053971;28;20036;-87
2023/02/18 04:25:32;;;;;;;11.38;8.57;;;9.90;99.90;;;;;;5054747;28;20017;-87
2023/02/18 04:27:57;;;;;;;12.93;8.82;;;9.90;99.90;;;;;;5072823;28;20495;-87
2023/02/18 04:30:23;;;;;;;12.23;8.65;;;9.80;99.90;;;;;;5073581;28;20024;-87
2023/02/18 04:32:49;;;;;;;13.05;7.55;;;9.90;99.90;;;;;;5069364;28;20025;-88
2023/02/18 04:35:15;;;;;;;9.60;7.38;;;9.80;99.90;;;;;;5052916;28;20536;-87
2023/02/18 04:37:40;;;;;;;13.43;8.60;;;10.40;99.90;;;;;;5055935;28;20106;-88
2023/02/18 04:40:07;;;;;;;16.80;9.02;;;10.30;99.90;;;;;;5072967;28;20052;-88
2023/02/18 04:42:33;;;;;;;14.00;8.77;;;9.80;99.90;;;;;;5074260;28;20035;-87
2023/02/18 04:44:58;;;;;;;15.82;8.98;;;9.80;99.90;;;;;;5073400;28;20017;-87
2023/02/18 04:47:24;;;;;;;17.92;8.90;;;9.80;99.90;;;;;;5072550;28;20036;-87
2023/02/18 04:49:49;;;;;;;16.77;9.88;;;9.80;99.90;;;;;;5072985;28;20095;-87
2023/02/18 04:52:15;;;;;;;20.23;10.82;;;9.80;99.90;;;;;;5069024;28;20081;-86
2023/02/18 04:54:41;;;;;;;25.63;12.13;;;9.80;99.90;;;;;;5052764;28;20056;-87
2023/02/18 04:57:06;;;;;;;21.75;12.68;;;9.80;99.90;;;;;;5053315;28;20064;-86
2023/02/18 04:59:32;;;;;;;27.10;14.10;;;9.80;99.90;;;;;;5053253;28;20616;-86
2023/02/18 05:01:58;;;;;;;28.15;14.85;;;9.80;99.90;;;;;;5052492;28;20025;-86
2023/02/18 05:04:23;;;;;;;31.55;15.55;;;9.70;99.90;;;;;;5053019;28;20492;-87
2023/02/18 05:06:49;;;;;;;29.30;14.65;;;9.70;99.90;;;;;;5052606;28;20021;-87
2023/02/18 05:09:14;;;;;;;23.50;13.75;;;9.70;99.90;;;;;;5052620;28;20036;-86
2023/02/18 05:11:40;;;;;;;26.27;12.85;;;9.70;99.90;;;;;;5052551;28;20175;-88
2023/02/18 05:14:06;;;;;;;21.65;11.45;;;10.20;99.90;;;;;;5053033;28;20029;-87
2023/02/18 05:16:32;;;;;;;16.85;9.80;;;10.60;99.90;;;;;;5052184;28;20032;-88
2023/02/18 05:18:57;;;;;;;12.43;9.13;;;9.70;99.90;;;;;;5052511;28;20024;-87
2023/02/18 05:21:23;;;;;;;11.32;9.20;;;9.70;99.90;;;;;;5052708;28;20423;-87
2023/02/18 05:23:48;;;;;;;15.02;10.88;;;9.70;99.90;;;;;;5052026;28;20017;-86
2023/02/18 05:26:14;;;;;;;17.38;11.75;;;9.70;99.90;;;;;;5052813;28;20070;-86
2023/02/18 05:28:39;;;;;;;21.42;12.68;;;9.70;99.90;;;;;;5052553;28;20025;-87
2023/02/18 05:31:05;;;;;;;25.55;15.35;;;9.70;99.90;;;;;;5052042;28;20032;-87
2023/02/18 05:33:31;;;;;;;30.90;14.85;;;9.80;99.90;;;;;;5056062;28;20104;-87
2023/02/18 05:35:56;;;;;;;26.75;15.43;;;9.70;99.90;;;;;;5052661;28;20480;-88
2023/02/18 05:38:22;;;;;;;37.83;16.58;;;10.10;99.90;;;;;;5052601;28;20049;-86
2023/02/18 05:40:48;;;;;;;31.48;16.13;;;9.80;99.90;;;;;;5064484;28;20078;-86
2023/02/18 05:43:14;;;;;;;32.17;15.93;;;9.80;99.90;;;;;;5072201;28;20088;-87
2023/02/18 05:45:39;;;;;;;31.10;15.57;;;9.80;99.90;;;;;;5072241;28;20404;-87
2023/02/18 05:48:05;;;;;;;32.65;15.55;;;9.80;99.90;;;;;;5072585;28;20029;-88
2023/02/18 05:50:31;;;;;;;30.60;16.25;;;9.80;99.90;;;;;;5072035;28;20170;-87
2023/02/18 05:52:56;;;;;;;39.40;18.15;;;9.80;99.90;;;;;;5055783;28;20045;-87
2023/02/18 05:55:23;;;;;;;34.60;16.25;;;10.10;99.90;;;;;;5052753;28;20404;-87
2023/02/18 05:57:49;;;;;;;30.50;16.33;;;9.80;99.90;;;;;;5051700;28;20044;-86
2023/02/18 06:00:15;;;;;;;40.05;17.15;;;9.80;99.90;;;;;;5052421;28;20385;-87
2023/02/18 06:02:40;;;;;;;35.08;15.75;;;9.70;99.90;;;;;;5051976;28;20603;-87
2023/02/18 06:05:06;;;;;;;39.03;17.98;;;9.70;99.90;;;;;;5051929;28;20032;-87
2023/02/18 06:07:32;;;;;;;42.88;17.92;;;9.70;99.90;;;;;;5052216;28;20106;-88
2023/02/18 06:09:57;;;;;;;34.38;16.98;;;9.70;99.90;;;;;;5052110;28;20063;-88
2023/02/18 06:12:23;;;;;;;37.58;18.10;;;9.70;99.90;;;;;;5051758;28;20036;-87
2023/02/18 06:14:49;;;;;;;41.40;17.98;;;9.70;99.90;;;;;;5051931;28;20505;-86
2023/02/18 06:17:15;;;;;;;37.35;17.52;;;9.70;99.90;;;;;;5054502;28;20047;-87
2023/02/18 06:19:40;;;;;;;46.80;18.88;;;9.70;99.90;;;;;;5055542;28;20031;-87
2023/02/18 06:22:07;;;;;;;41.38;17.50;;;9.70;99.90;;;;;;5056387;28;20031;-88
2023/02/18 06:24:33;;;;;;;39.42;16.70;;;9.80;99.90;;;;;;5056249;28;20096;-86
2023/02/18 06:26:58;;;;;;;44.80;17.58;;;9.80;99.90;;;;;;5055276;28;20025;-86
2023/02/18 06:29:24;;;;;;;38.67;15.80;;;9.80;99.90;;;;;;5074451;28;20111;-87
2023/02/18 06:31:50;;;;;;;46.45;15.65;;;9.80;99.90;;;;;;5075546;28;20020;-87
2023/02/18 06:34:15;;;;;;;48.47;15.70;;;10.90;99.90;;;;;;5075139;28;20021;-87
2023/02/18 06:36:44;;;;;;;40.65;14.35;;;9.80;99.90;;;;;;5075617;28;20505;-91
2023/02/18 06:39:09;;;;;;;47.65;14.82;;;9.80;99.90;;;;;;5074379;28;20541;-87
2023/02/18 06:41:36;;;;;;;38.80;14.98;;;9.90;99.90;;;;;;5071450;28;20037;-87
2023/02/18 06:44:02;;;;;;;30.05;12.48;;;9.90;99.90;;;;;;5074920;28;20052;-86
2023/02/18 06:46:28;;;;;;;40.95;13.93;;;9.80;99.90;;;;;;5071035;28;20049;-86
2023/02/18 06:48:53;;;;;;;29.33;12.23;;;9.80;99.90;;;;;;5074583;28;20020;-87
2023/02/18 06:51:19;;;;;;;40.10;13.10;;;9.80;99.90;;;;;;5075157;28;20016;-87
2023/02/18 06:53:45;;;;;;;39.63;11.98;;;9.80;99.90;;;;;;5074317;28;20032;-87
2023/02/18 06:56:11;;;;;;;39.10;11.88;;;10.20;99.90;;;;;;5068723;28;20036;-86
2023/02/18 06:58:37;;;;;;;42.67;11.57;;;9.80;99.90;;;;;;5073087;28;21185;-87
2023/02/18 07:01:04;;;;;;;38.20;12.18;;;9.70;99.90;;;;;;5074152;28;20028;-85
2023/02/18 07:03:29;;;;;;;38.30;10.07;;;10.50;99.90;;;;;;5074370;28;20009;-87
2023/02/18 07:05:55;;;;;;;36.97;10.20;;;11.20;99.90;;;;;;5074619;28;20031;-86
2023/02/18 07:08:21;;;;;;;41.60;10.02;;;9.70;99.90;;;;;;5073733;28;20502;-87
2023/02/18 07:10:47;;;;;;;40.72;9.43;;;9.70;99.90;;;;;;5072783;28;20017;-86
2023/02/18 07:13:13;;;;;;;42.20;11.20;;;9.70;99.90;;;;;;5074054;28;20028;-87
2023/02/18 07:15:38;;;;;;;38.75;8.98;;;9.70;99.90;;;;;;5073653;28;20023;-86
2023/02/18 07:18:04;;;;;;;39.95;8.98;;;9.70;99.90;;;;;;5074639;28;20078;-86
2023/02/18 07:20:30;;;;;;;43.00;8.40;;;9.70;99.90;;;;;;5074475;28;20066;-87
2023/02/18 07:22:55;;;;;;;45.83;8.38;;;9.70;99.90;;;;;;5073769;28;20024;-87
2023/02/18 07:25:22;;;;;;;35.97;7.53;;;9.70;99.90;;;;;;5073307;28;20025;-87
2023/02/18 07:27:47;;;;;;;44.85;7.40;;;9.70;99.90;;;;;;5072913;28;20063;-87
2023/02/18 07:30:13;;;;;;;39.20;6.60;;;9.70;99.90;;;;;;5074098;28;20063;-87
2023/02/18 07:32:39;;;;;;;36.53;6.07;;;9.70;99.90;;;;;;5071475;28;20021;-86
2023/02/18 07:35:05;;;;;;;33.50;6.47;;;9.70;99.90;;;;;;5074081;28;20025;-87
2023/02/18 07:37:31;;;;;;;35.38;5.07;;;9.70;99.90;;;;;;5072808;28;20051;-87
2023/02/18 07:39:57;;;;;;;37.17;5.63;;;9.60;99.90;;;;;;5071712;28;20025;-87
2023/02/18 07:42:23;;;;;;;31.90;5.40;;;9.70;99.90;;;;;;5074232;28;20028;-87
2023/02/18 07:44:51;;;;;;;23.40;4.70;;;9.70;99.90;;;;;;5073701;28;20016;-87
2023/02/18 07:47:20;;;;;;;38.83;4.88;;;9.70;99.90;;;;;;5074383;28;20016;-86
2023/02/18 07:49:46;;;;;;;39.22;4.97;;;9.70;99.90;;;;;;5071126;28;20052;-87
2023/02/18 07:52:12;;;;;;;26.13;4.38;;;9.80;99.90;;;;;;5073094;28;20040;-86
2023/02/18 07:54:38;;;;;;;43.08;5.00;;;9.70;99.90;;;;;;5072881;28;20099;-86
2023/02/18 07:57:04;;;;;;;25.10;3.80;;;9.80;99.90;;;;;;5073258;28;20169;-87
2023/02/18 07:59:29;;;;;;;25.42;4.63;;;9.80;99.90;;;;;;5073831;28;20020;-87
2023/02/18 08:01:55;;;;;;;23.38;4.30;;;9.80;99.90;;;;;;5073561;28;20025;-87
2023/02/18 08:04:20;;;;;;;29.15;4.72;;;9.80;99.90;;;;;;5072991;28;20024;-88
2023/02/18 08:06:48;;;;;;;30.33;4.72;;;9.80;99.90;;;;;;5071492;28;20067;-87
2023/02/18 08:09:15;;;;;;;30.73;3.85;;;9.80;99.90;;;;;;5073649;28;20074;-87
2023/02/18 08:11:41;;;;;;;23.10;4.53;;;9.80;99.90;;;;;;5065051;28;20032;-86
2023/02/18 08:14:07;;;;;;;24.33;3.75;;;9.80;99.90;;;;;;5067939;28;20392;-88
2023/02/18 08:16:41;;;;;;;25.80;4.10;;;9.80;99.90;;;;;;5074097;28;20024;-87
2023/02/18 08:19:07;;;;;;;30.05;4.15;;;9.80;99.90;;;;;;5073189;28;20483;-86
2023/02/18 08:21:33;;;;;;;25.02;4.07;;;10.60;99.90;;;;;;5054481;28;20049;-86
2023/02/18 08:23:58;;;;;;;25.52;3.67;;;9.70;99.90;;;;;;5054371;28;20025;-87
2023/02/18 08:26:24;;;;;;;19.02;3.35;;;9.80;99.90;;;;;;5053552;28;20029;-89
2023/02/18 08:28:50;;;;;;;19.50;3.63;;;9.80;99.90;;;;;;5052135;28;20046;-86
2023/02/18 08:31:25;;;;;;;21.73;3.53;;;9.70;99.90;;;;;;5053876;28;20032;-89
2023/02/18 08:33:53;;;;;;;20.20;3.08;;;9.80;99.90;;;;;;5057785;28;20085;-87
2023/02/18 08:36:19;;;;;;;17.77;3.28;;;9.80;99.90;;;;;;5073303;28;20028;-87
2023/02/18 08:38:45;;;;;;;26.60;4.28;;;9.80;99.90;;;;;;5072470;28;20480;-87
2023/02/18 08:41:13;;;;;;;19.45;3.75;;;9.80;99.90;;;;;;5072815;28;20040;-87
2023/02/18 08:43:39;;;;;;;23.88;4.25;;;9.80;99.90;;;;;;5072770;28;20021;-87
2023/02/18 08:46:04;;;;;;;17.38;3.08;;;9.80;99.90;;;;;;5072599;28;20035;-87
2023/02/18 08:48:30;;;;;;;24.92;3.38;;;9.70;99.90;;;;;;5073182;28;20034;-87
2023/02/18 08:50:56;;;;;;;19.10;3.42;;;10.80;99.90;;;;;;5073117;28;20070;-87
2023/02/18 08:53:22;;;;;;;15.45;3.17;;;10.50;99.90;;;;;;5072754;28;20083;-88
2023/02/18 08:55:48;;;;;;;17.00;3.75;;;9.80;99.90;;;;;;5072688;28;20103;-86
2023/02/18 08:58:13;;;;;;;16.00;3.28;;;9.80;99.90;;;;;;5072985;28;20436;-87
2023/02/18 09:00:41;;;;;;;27.50;3.65;;;9.90;99.90;;;;;;5072027;28;20115;-88
2023/02/18 09:03:09;;;;;;;24.55;4.35;;;9.90;99.90;;;;;;5072684;28;20107;-86
2023/02/18 09:05:35;;;;;;;34.17;4.43;;;10.70;99.90;;;;;;5071145;28;20467;-87
2023/02/18 09:08:00;;;;;;;17.35;3.88;;;9.90;99.90;;;;;;5071112;28;20025;-88
2023/02/18 09:10:26;;;;;;;34.03;5.15;;;9.90;99.90;;;;;;5072315;28;20387;-86
2023/02/18 09:12:51;;;;;;;25.35;3.97;;;10.90;99.90;;;;;;5071810;28;20513;-90
2023/02/18 09:15:26;;;;;;;19.35;3.28;;;10.60;99.90;;;;;;5074837;28;20078;-90
2023/02/18 09:17:52;;;;;;;21.38;3.80;;;9.90;99.90;;;;;;5070388;28;20155;-85
2023/02/18 09:20:18;;;;;;;32.15;4.15;;;9.90;99.90;;;;;;5071929;28;20104;-87
2023/02/18 09:22:44;;;;;;;26.33;4.13;;;10.80;99.90;;;;;;5072030;28;20476;-87
2023/02/18 09:25:09;;;;;;;29.40;4.15;;;9.80;99.90;;;;;;5072884;28;20036;-87
2023/02/18 09:27:35;;;;;;;30.00;4.32;;;9.90;99.90;;;;;;5072722;28;20020;-88
2023/02/18 09:30:01;;;;;;;21.38;3.88;;;9.90;99.90;;;;;;5072553;28;20020;-88
2023/02/18 09:32:26;;;;;;;23.88;4.47;;;9.90;99.90;;;;;;5073461;28;20042;-87
2023/02/18 09:34:52;;;;;;;20.65;3.65;;;9.90;99.90;;;;;;5072823;28;20028;-86
2023/02/18 09:37:17;;;;;;;21.13;3.30;;;9.90;99.90;;;;;;5072422;28;20043;-86
2023/02/18 09:39:43;;;;;;;26.23;3.88;;;9.90;99.90;;;;;;5072102;28;20033;-87
2023/02/18 09:42:34;;;;;;;27.90;4.82;;;9.90;99.90;;;;;;5064776;28;20037;-87
2023/02/18 09:45:04;;;;;;;29.65;4.07;;;9.90;99.90;;;;;;5052660;28;20480;-86
2023/02/18 09:47:40;;;;;;;29.92;4.38;;;9.90;99.90;;;;;;5067800;28;20040;-86
2023/02/18 09:50:06;;;;;;;24.88;4.38;;;10.00;99.90;;;;;;5072369;28;20072;-88
2023/02/18 09:53:01;;;;;;;21.35;4.00;;;9.90;99.90;;;;;;5066462;28;20068;-88
2023/02/18 09:55:38;;;;;;;31.95;4.85;;;9.90;99.90;;;;;;5071228;28;20460;-89
2023/02/18 09:58:26;;;;;;;24.15;4.03;;;10.00;99.90;;;;;;5069220;28;20040;-89
2023/02/18 10:01:34;;;;;;;22.92;4.88;;;10.00;99.90;;;;;;5073507;28;20020;-89
2023/02/18 10:04:09;;;;;;;26.50;4.30;;;10.00;99.90;;;;;;5074329;28;20028;-88
2023/02/18 10:06:35;;;;;;;27.17;6.03;;;10.00;99.90;;;;;;5073205;28;20032;-88
2023/02/18 10:09:04;;;;;;;29.55;5.90;;;11.10;99.90;;;;;;5073907;28;20464;-88
2023/02/18 10:11:42;;;;;;;41.25;6.50;;;10.10;99.90;;;;;;5066448;28;20108;-96
2023/02/18 10:14:13;;;;;;;18.90;4.35;;;11.10;99.90;;;;;;5071852;28;20033;-87
2023/02/18 10:16:39;;;;;;;23.55;4.78;;;10.10;99.90;;;;;;5072526;28;20032;-90
2023/02/18 10:19:18;;;;;;;28.48;6.00;;;11.20;99.90;;;;;;5072647;28;20035;-89
2023/02/18 10:21:44;;;;;;;28.85;4.57;;;10.10;99.90;;;;;;5072927;28;20033;-89
2023/02/18 10:24:31;;;;;;;24.98;4.85;;;10.10;99.90;;;;;;5073128;28;20411;-89
2023/02/18 10:26:57;;;;;;;23.75;5.30;;;10.10;99.90;;;;;;5078620;28;20118;-93
2023/02/18 10:29:24;;;;;;;28.85;4.45;;;10.20;99.90;;;;;;5078038;28;20025;-92
2023/02/18 10:31:58;;;;;;;24.88;4.38;;;10.10;99.90;;;;;;5080801;28;20025;-92
2023/02/18 10:34:40;;;;;;;23.23;4.97;;;10.20;99.90;;;;;;5082251;28;20519;-89
2023/02/18 10:37:27;;;;;;;27.40;4.07;;;10.10;99.90;;;;;;5073574;28;20040;-90
2023/02/18 10:40:29;;;;;;;27.83;4.68;;;10.20;99.90;;;;;;5073087;28;20155;-88
2023/02/18 10:43:35;;;;;;;21.80;4.50;;;10.20;99.90;;;;;;5072912;28;20027;-91
2023/02/18 10:46:14;;;;;;;26.13;5.18;;;10.20;99.90;;;;;;5054194;28;20068;-91
2023/02/18 10:48:40;;;;;;;24.25;4.18;;;10.20;99.90;;;;;;5057988;28;20029;-90
2023/02/18 10:51:24;;;;;;;24.67;4.88;;;10.30;99.90;;;;;;5063386;28;20040;-89
2023/02/18 10:53:52;;;;;;;20.27;4.10;;;10.30;99.90;;;;;;5059716;28;20052;-89
2023/02/18 10:56:36;;;;;;;17.23;4.57;;;10.70;99.90;;;;;;5062773;28;20119;-90
2023/02/18 10:59:19;;;;;;;34.05;5.32;;;11.00;99.90;;;;;;5058454;28;20021;-89
2023/02/18 11:01:51;;;;;;;19.55;4.88;;;10.40;99.90;;;;;;5063111;28;20089;-89
2023/02/18 11:04:19;;;;;;;25.05;4.20;;;10.50;99.90;;;;;;5069325;28;20028;-89
2023/02/18 11:06:50;;;;;;;18.67;3.40;;;10.50;99.90;;;;;;5067965;28;20031;-89
2023/02/18 11:09:39;;;;;;;22.88;3.85;;;11.50;99.90;;;;;;5069798;28;20017;-90
2023/02/18 11:12:14;;;;;;;14.57;3.63;;;10.60;99.90;;;;;;5076283;28;20024;-91
2023/02/18 11:14:56;;;;;;;26.05;4.28;;;10.50;99.90;;;;;;5066272;28;20028;-89
2023/02/18 11:17:30;;;;;;;20.60;3.88;;;11.60;99.90;;;;;;5064685;28;20066;-91
2023/02/18 11:20:01;;;;;;;19.55;3.78;;;10.90;99.90;;;;;;5066035;28;20033;-94
2023/02/18 11:22:44;;;;;;;22.88;4.47;;;10.70;99.90;;;;;;5058048;28;20017;-93
2023/02/18 11:25:36;;;;;;;16.00;3.67;;;10.70;99.90;;;;;;5057733;28;20039;-93
2023/02/18 11:28:25;;;;;;;17.48;3.60;;;10.70;99.90;;;;;;5058321;28;20029;-92
2023/02/18 11:30:57;;;;;;;15.98;4.15;;;12.20;99.90;;;;;;5071259;28;20048;-93
2023/02/18 11:33:59;;;;;;;24.50;4.38;;;10.80;99.90;;;;;;5067086;28;20028;-92
2023/02/18 11:36:35;;;;;;;19.48;3.53;;;10.80;99.90;;;;;;5061206;28;20020;-91
2023/02/18 11:39:13;;;;;;;25.77;3.65;;;10.80;99.90;;;;;;5070802;28;20476;-91
2023/02/18 11:41:42;;;;;;;28.67;4.28;;;10.80;99.90;;;;;;5062448;28;20028;-91
2023/02/18 11:44:23;;;;;;;15.20;3.45;;;10.80;99.90;;;;;;5066074;28;20038;-93
2023/02/18 11:47:15;;;;;;;19.58;4.38;;;10.80;99.90;;;;;;5064744;28;20032;-93
2023/02/18 11:49:42;;;;;;;18.38;3.78;;;10.90;99.90;;;;;;5062351;28;20041;-93
2023/02/18 11:52:33;;;;;;;28.95;4.05;;;10.80;99.90;;;;;;5068578;28;20128;-91
2023/02/18 11:55:21;;;;;;;29.73;4.28;;;10.90;99.90;;;;;;5070130;28;20029;-91
2023/02/18 11:58:04;;;;;;;34.28;4.32;;;10.90;99.90;;;;;;5065389;28;20041;-92
2023/02/18 12:00:50;;;;;;;23.50;3.85;;;10.90;99.90;;;;;;5077251;28;20035;-93
2023/02/18 12:03:40;;;;;;;17.67;3.03;;;10.90;99.90;;;;;;5076909;28;20024;-89
2023/02/18 12:06:26;;;;;;;27.08;4.05;;;11.00;99.90;;;;;;5060210;28;20353;-91
2023/02/18 12:09:18;;;;;;;15.77;3.08;;;11.30;99.90;;;;;;5065059;28;20035;-92
2023/02/18 12:11:48;;;;;;;21.85;3.30;;;11.00;99.90;;;;;;5048704;28;20036;-92
2023/02/18 12:14:17;;;;;;;14.25;3.08;;;11.80;99.90;;;;;;5055607;28;20028;-91
2023/02/18 12:17:01;;;;;;;23.83;4.57;;;12.10;99.90;;;;;;5055665;28;20064;-92
2023/02/18 12:19:50;;;;;;;15.05;3.90;;;11.10;99.90;;;;;;5056381;28;20041;-91
2023/02/18 12:22:35;;;;;;;18.25;3.97;;;11.10;99.90;;;;;;5056066;28;20104;-90
2023/02/18 12:25:23;;;;;;;20.73;3.22;;;11.00;99.90;;;;;;5056075;28;20025;-91
2023/02/18 12:28:14;;;;;;;21.25;4.43;;;11.10;99.90;;;;;;5055843;28;20025;-91
2023/02/18 12:31:17;;;;;;;22.23;4.05;;;11.10;99.90;;;;;;5067011;28;20021;-92
2023/02/18 12:34:24;;;;;;;24.42;4.70;;;11.10;99.90;;;;;;5068283;28;20020;-92
2023/02/18 12:37:31;;;;;;;19.05;3.92;;;11.10;99.90;;;;;;5014007;28;20073;-91
2023/02/18 12:40:19;;;;;;;31.25;4.18;;;11.30;99.90;;;;;;4916156;29;20028;-92
2023/02/18 12:43:03;;;;;;;36.35;4.97;;;11.30;99.90;;;;;;4969893;28;20065;-90
2023/02/18 12:45:48;;;;;;;22.90;3.80;;;11.20;99.90;;;;;;5047704;28;20062;-90
2023/02/18 12:48:29;;;;;;;24.67;4.50;;;11.20;99.90;;;;;;5074279;28;20081;-89
2023/02/18 12:51:16;;;;;;;27.67;5.20;;;11.20;99.90;;;;;;5074143;28;20407;-89
2023/02/18 12:54:01;;;;;;;21.05;3.70;;;11.20;99.90;;;;;;5073159;28;20053;-89
2023/02/18 12:56:36;;;;;;;20.55;3.58;;;11.70;99.90;;;;;;5074133;28;20024;-90
2023/02/18 12:59:04;;;;;;;25.02;4.22;;;11.30;99.90;;;;;;5074389;28;20070;-89
2023/02/18 13:01:46;;;;;;;23.10;4.80;;;12.20;99.90;;;;;;5073975;28;20029;-89